sensor_id;sensor_type;location;lat;lon;timestamp;P1;durP1;ratioP1;P2;durP2;ratioP2
3847;SDS011;1939;48.720;9.166;2023-07-29T00:00:25;2.90;;;2.70;;
3847;SDS011;1939;48.720;9.166;2023-07-29T00:02:50;2.60;;;2.00;;
3847;SDS011;1939;48.720;9.166;2023-07-29T00:05:15;4.20;;;2.70;;
3847;SDS011;1939;48.720;9.166;2023-07-29T00:07:40;3.10;;;2.60;;
3847;SDS011;1939;48.720;9.166;2023-07-29T00:10:06;10.73;;;2.90;;
3847;SDS011;1939;48.720;9.166;2023-07-29T00:12:31;2.50;;;1.90;;
3847;SDS011;1939;48.720;9.166;2023-07-29T00:14:56;3.07;;;2.57;;
3847;SDS011;1939;48.720;9.166;2023-07-29T00:17:22;5.70;;;2.60;;
3847;SDS011;1939;48.720;9.166;2023-07-29T00:19:47;3.30;;;2.00;;
3847;SDS011;1939;48.720;9.166;2023-07-29T00:22:13;15.23;;;2.80;;
3847;SDS011;1939;48.720;9.166;2023-07-29T00:24:39;4.20;;;2.40;;
3847;SDS011;1939;48.720;9.166;2023-07-29T00:27:04;4.10;;;2.50;;
3847;SDS011;1939;48.720;9.166;2023-07-29T00:29:30;8.77;;;3.03;;
3847;SDS011;1939;48.720;9.166;2023-07-29T00:31:55;3.83;;;2.47;;
3847;SDS011;1939;48.720;9.166;2023-07-29T00:34:20;3.13;;;2.83;;
3847;SDS011;1939;48.720;9.166;2023-07-29T00:36:46;4.13;;;2.43;;
3847;SDS011;1939;48.720;9.166;2023-07-29T00:39:11;6.40;;;3.80;;
3847;SDS011;1939;48.720;9.166;2023-07-29T00:41:36;6.63;;;2.57;;
3847;SDS011;1939;48.720;9.166;2023-07-29T00:44:01;5.17;;;2.90;;
3847;SDS011;1939;48.720;9.166;2023-07-29T00:46:27;8.83;;;3.07;;
3847;SDS011;1939;48.720;9.166;2023-07-29T00:48:53;6.07;;;3.40;;
3847;SDS011;1939;48.720;9.166;2023-07-29T00:51:18;6.27;;;3.10;;
3847;SDS011;1939;48.720;9.166;2023-07-29T00:53:43;2.30;;;2.10;;
3847;SDS011;1939;48.720;9.166;2023-07-29T00:56:08;5.00;;;2.80;;
3847;SDS011;1939;48.720;9.166;2023-07-29T00:58:34;7.27;;;2.40;;
3847;SDS011;1939;48.720;9.166;2023-07-29T01:00:59;9.77;;;3.07;;
3847;SDS011;1939;48.720;9.166;2023-07-29T01:03:24;17.97;;;3.63;;
3847;SDS011;1939;48.720;9.166;2023-07-29T01:05:55;9.20;;;2.83;;
3847;SDS011;1939;48.720;9.166;2023-07-29T01:08:25;7.50;;;3.00;;
3847;SDS011;1939;48.720;9.166;2023-07-29T01:16:03;3.10;;;2.50;;
3847;SDS011;1939;48.720;9.166;2023-07-29T01:18:32;4.50;;;2.80;;
3847;SDS011;1939;48.720;9.166;2023-07-29T01:21:02;4.57;;;2.83;;
3847;SDS011;1939;48.720;9.166;2023-07-29T01:23:31;3.23;;;2.57;;
3847;SDS011;1939;48.720;9.166;2023-07-29T01:25:58;3.93;;;3.50;;
3847;SDS011;1939;48.720;9.166;2023-07-29T01:28:23;6.70;;;2.60;;
3847;SDS011;1939;48.720;9.166;2023-07-29T01:30:49;8.57;;;3.33;;
3847;SDS011;1939;48.720;9.166;2023-07-29T01:33:17;8.80;;;2.93;;
3847;SDS011;1939;48.720;9.166;2023-07-29T01:35:47;4.90;;;2.47;;
3847;SDS011;1939;48.720;9.166;2023-07-29T01:38:14;5.67;;;3.37;;
3847;SDS011;1939;48.720;9.166;2023-07-29T01:40:39;6.17;;;3.00;;
3847;SDS011;1939;48.720;9.166;2023-07-29T01:43:05;5.80;;;2.90;;
3847;SDS011;1939;48.720;9.166;2023-07-29T01:45:32;4.97;;;2.40;;
3847;SDS011;1939;48.720;9.166;2023-07-29T01:48:00;14.13;;;2.90;;
3847;SDS011;1939;48.720;9.166;2023-07-29T01:50:25;4.40;;;2.47;;
3847;SDS011;1939;48.720;9.166;2023-07-29T01:52:51;3.40;;;1.93;;
3847;SDS011;1939;48.720;9.166;2023-07-29T01:55:16;3.80;;;2.20;;
3847;SDS011;1939;48.720;9.166;2023-07-29T01:57:41;3.47;;;2.40;;
3847;SDS011;1939;48.720;9.166;2023-07-29T02:00:09;2.33;;;2.10;;
3847;SDS011;1939;48.720;9.166;2023-07-29T02:02:35;5.33;;;2.17;;
3847;SDS011;1939;48.720;9.166;2023-07-29T02:05:00;3.23;;;2.20;;
3847;SDS011;1939;48.720;9.166;2023-07-29T02:07:25;15.20;;;2.77;;
3847;SDS011;1939;48.720;9.166;2023-07-29T02:09:51;3.23;;;2.93;;
3847;SDS011;1939;48.720;9.166;2023-07-29T02:12:16;5.50;;;2.83;;
3847;SDS011;1939;48.720;9.166;2023-07-29T02:14:42;4.97;;;2.20;;
3847;SDS011;1939;48.720;9.166;2023-07-29T02:17:07;4.13;;;2.60;;
3847;SDS011;1939;48.720;9.166;2023-07-29T02:19:33;2.20;;;2.00;;
3847;SDS011;1939;48.720;9.166;2023-07-29T02:21:58;2.70;;;2.20;;
3847;SDS011;1939;48.720;9.166;2023-07-29T02:24:24;6.40;;;2.53;;
3847;SDS011;1939;48.720;9.166;2023-07-29T02:26:49;4.77;;;1.90;;
3847;SDS011;1939;48.720;9.166;2023-07-29T02:29:15;9.23;;;2.93;;
3847;SDS011;1939;48.720;9.166;2023-07-29T02:31:40;6.63;;;2.10;;
3847;SDS011;1939;48.720;9.166;2023-07-29T02:34:05;2.80;;;2.10;;
3847;SDS011;1939;48.720;9.166;2023-07-29T02:36:30;2.13;;;1.87;;
3847;SDS011;1939;48.720;9.166;2023-07-29T02:38:56;5.10;;;2.60;;
3847;SDS011;1939;48.720;9.166;2023-07-29T02:41:21;3.17;;;2.10;;
3847;SDS011;1939;48.720;9.166;2023-07-29T02:43:50;7.17;;;2.43;;
3847;SDS011;1939;48.720;9.166;2023-07-29T02:46:15;8.30;;;3.47;;
3847;SDS011;1939;48.720;9.166;2023-07-29T02:48:41;2.37;;;2.17;;
3847;SDS011;1939;48.720;9.166;2023-07-29T02:51:06;6.40;;;2.30;;
3847;SDS011;1939;48.720;9.166;2023-07-29T02:53:32;5.17;;;2.80;;
3847;SDS011;1939;48.720;9.166;2023-07-29T02:55:57;2.60;;;1.87;;
3847;SDS011;1939;48.720;9.166;2023-07-29T02:58:22;2.50;;;1.70;;
3847;SDS011;1939;48.720;9.166;2023-07-29T03:00:47;2.60;;;1.63;;
3847;SDS011;1939;48.720;9.166;2023-07-29T03:03:13;3.27;;;2.27;;
3847;SDS011;1939;48.720;9.166;2023-07-29T03:05:39;4.27;;;1.80;;
3847;SDS011;1939;48.720;9.166;2023-07-29T03:08:04;2.40;;;2.00;;
3847;SDS011;1939;48.720;9.166;2023-07-29T03:10:29;4.40;;;2.30;;
3847;SDS011;1939;48.720;9.166;2023-07-29T03:12:55;2.40;;;1.80;;
3847;SDS011;1939;48.720;9.166;2023-07-29T03:15:24;2.90;;;2.20;;
3847;SDS011;1939;48.720;9.166;2023-07-29T03:17:50;2.60;;;2.30;;
3847;SDS011;1939;48.720;9.166;2023-07-29T03:20:15;2.80;;;2.43;;
3847;SDS011;1939;48.720;9.166;2023-07-29T03:22:42;4.40;;;2.33;;
3847;SDS011;1939;48.720;9.166;2023-07-29T03:25:08;2.50;;;2.13;;
3847;SDS011;1939;48.720;9.166;2023-07-29T03:27:45;4.10;;;2.97;;
3847;SDS011;1939;48.720;9.166;2023-07-29T03:30:30;2.77;;;1.80;;
3847;SDS011;1939;48.720;9.166;2023-07-29T03:32:55;3.30;;;2.30;;
3847;SDS011;1939;48.720;9.166;2023-07-29T03:35:31;3.00;;;1.80;;
3847;SDS011;1939;48.720;9.166;2023-07-29T03:38:08;5.27;;;2.20;;
3847;SDS011;1939;48.720;9.166;2023-07-29T03:40:33;3.10;;;2.20;;
3847;SDS011;1939;48.720;9.166;2023-07-29T03:42:58;9.80;;;2.10;;
3847;SDS011;1939;48.720;9.166;2023-07-29T03:45:28;2.53;;;2.23;;
3847;SDS011;1939;48.720;9.166;2023-07-29T03:48:05;3.23;;;2.37;;
3847;SDS011;1939;48.720;9.166;2023-07-29T03:50:32;4.27;;;2.00;;
3847;SDS011;1939;48.720;9.166;2023-07-29T03:52:57;3.10;;;2.77;;
3847;SDS011;1939;48.720;9.166;2023-07-29T03:55:23;2.53;;;1.90;;
3847;SDS011;1939;48.720;9.166;2023-07-29T03:57:48;2.80;;;2.10;;
3847;SDS011;1939;48.720;9.166;2023-07-29T04:00:13;4.70;;;2.80;;
3847;SDS011;1939;48.720;9.166;2023-07-29T04:02:39;4.93;;;2.50;;
3847;SDS011;1939;48.720;9.166;2023-07-29T04:05:04;3.90;;;2.30;;
3847;SDS011;1939;48.720;9.166;2023-07-29T04:07:30;2.53;;;2.10;;
3847;SDS011;1939;48.720;9.166;2023-07-29T04:09:55;3.20;;;2.10;;
3847;SDS011;1939;48.720;9.166;2023-07-29T04:12:21;2.67;;;2.20;;
3847;SDS011;1939;48.720;9.166;2023-07-29T04:14:47;2.47;;;2.00;;
3847;SDS011;1939;48.720;9.166;2023-07-29T04:17:12;2.33;;;1.80;;
3847;SDS011;1939;48.720;9.166;2023-07-29T04:19:37;2.90;;;2.10;;
3847;SDS011;1939;48.720;9.166;2023-07-29T04:22:03;11.83;;;2.50;;
3847;SDS011;1939;48.720;9.166;2023-07-29T04:24:28;4.60;;;2.50;;
3847;SDS011;1939;48.720;9.166;2023-07-29T04:26:53;3.53;;;2.70;;
3847;SDS011;1939;48.720;9.166;2023-07-29T04:29:18;3.30;;;2.40;;
3847;SDS011;1939;48.720;9.166;2023-07-29T04:31:44;4.10;;;2.77;;
3847;SDS011;1939;48.720;9.166;2023-07-29T04:34:09;4.40;;;2.70;;
3847;SDS011;1939;48.720;9.166;2023-07-29T04:36:34;6.83;;;3.00;;
3847;SDS011;1939;48.720;9.166;2023-07-29T04:39:00;4.30;;;2.30;;
3847;SDS011;1939;48.720;9.166;2023-07-29T04:41:37;12.27;;;3.07;;
3847;SDS011;1939;48.720;9.166;2023-07-29T04:44:19;4.93;;;3.23;;
3847;SDS011;1939;48.720;9.166;2023-07-29T04:46:44;8.17;;;3.60;;
3847;SDS011;1939;48.720;9.166;2023-07-29T04:49:09;7.30;;;3.00;;
3847;SDS011;1939;48.720;9.166;2023-07-29T04:51:34;4.40;;;2.70;;
3847;SDS011;1939;48.720;9.166;2023-07-29T04:54:00;5.00;;;2.73;;
3847;SDS011;1939;48.720;9.166;2023-07-29T04:56:25;4.00;;;3.03;;
3847;SDS011;1939;48.720;9.166;2023-07-29T04:58:54;11.60;;;3.40;;
3847;SDS011;1939;48.720;9.166;2023-07-29T05:01:19;5.13;;;3.43;;
3847;SDS011;1939;48.720;9.166;2023-07-29T05:03:44;4.87;;;3.53;;
3847;SDS011;1939;48.720;9.166;2023-07-29T05:06:09;7.40;;;3.50;;
3847;SDS011;1939;48.720;9.166;2023-07-29T05:08:35;6.20;;;3.30;;
3847;SDS011;1939;48.720;9.166;2023-07-29T05:11:00;8.03;;;3.63;;
3847;SDS011;1939;48.720;9.166;2023-07-29T05:13:25;5.00;;;3.13;;
3847;SDS011;1939;48.720;9.166;2023-07-29T05:15:50;5.53;;;3.47;;
3847;SDS011;1939;48.720;9.166;2023-07-29T05:18:16;7.17;;;3.00;;
3847;SDS011;1939;48.720;9.166;2023-07-29T05:20:41;4.87;;;2.80;;
3847;SDS011;1939;48.720;9.166;2023-07-29T05:23:07;7.17;;;3.93;;
3847;SDS011;1939;48.720;9.166;2023-07-29T05:25:32;6.50;;;3.57;;
3847;SDS011;1939;48.720;9.166;2023-07-29T05:27:59;5.20;;;3.33;;
3847;SDS011;1939;48.720;9.166;2023-07-29T05:30:25;7.23;;;3.53;;
3847;SDS011;1939;48.720;9.166;2023-07-29T05:32:52;5.93;;;4.20;;
3847;SDS011;1939;48.720;9.166;2023-07-29T05:35:17;9.00;;;3.07;;
3847;SDS011;1939;48.720;9.166;2023-07-29T05:37:42;8.20;;;3.47;;
3847;SDS011;1939;48.720;9.166;2023-07-29T05:40:07;7.97;;;3.90;;
3847;SDS011;1939;48.720;9.166;2023-07-29T05:42:36;4.30;;;3.23;;
3847;SDS011;1939;48.720;9.166;2023-07-29T05:45:01;8.00;;;3.57;;
3847;SDS011;1939;48.720;9.166;2023-07-29T05:47:27;5.20;;;3.13;;
3847;SDS011;1939;48.720;9.166;2023-07-29T05:49:52;5.17;;;3.27;;
3847;SDS011;1939;48.720;9.166;2023-07-29T05:52:17;7.10;;;3.47;;
3847;SDS011;1939;48.720;9.166;2023-07-29T05:57:58;4.07;;;2.67;;
3847;SDS011;1939;48.720;9.166;2023-07-29T06:00:25;6.23;;;3.13;;
3847;SDS011;1939;48.720;9.166;2023-07-29T06:06:13;3.77;;;3.40;;
3847;SDS011;1939;48.720;9.166;2023-07-29T06:08:38;4.60;;;2.87;;
3847;SDS011;1939;48.720;9.166;2023-07-29T06:11:03;3.60;;;2.73;;
3847;SDS011;1939;48.720;9.166;2023-07-29T06:13:31;11.00;;;4.93;;
3847;SDS011;1939;48.720;9.166;2023-07-29T06:15:56;6.10;;;2.60;;
3847;SDS011;1939;48.720;9.166;2023-07-29T06:18:21;5.83;;;2.70;;
3847;SDS011;1939;48.720;9.166;2023-07-29T06:20:47;2.60;;;2.13;;
3847;SDS011;1939;48.720;9.166;2023-07-29T06:23:12;2.40;;;1.93;;
3847;SDS011;1939;48.720;9.166;2023-07-29T06:25:50;4.47;;;2.43;;
3847;SDS011;1939;48.720;9.166;2023-07-29T06:28:18;4.63;;;3.13;;
3847;SDS011;1939;48.720;9.166;2023-07-29T06:30:43;4.00;;;2.07;;
3847;SDS011;1939;48.720;9.166;2023-07-29T06:33:08;4.07;;;2.20;;
3847;SDS011;1939;48.720;9.166;2023-07-29T06:35:34;2.50;;;1.80;;
3847;SDS011;1939;48.720;9.166;2023-07-29T06:37:59;2.43;;;1.90;;
3847;SDS011;1939;48.720;9.166;2023-07-29T06:40:24;2.40;;;1.73;;
3847;SDS011;1939;48.720;9.166;2023-07-29T06:42:50;3.10;;;2.27;;
3847;SDS011;1939;48.720;9.166;2023-07-29T06:45:15;10.20;;;2.17;;
3847;SDS011;1939;48.720;9.166;2023-07-29T06:50:33;3.87;;;2.23;;
3847;SDS011;1939;48.720;9.166;2023-07-29T06:53:01;3.87;;;2.27;;
3847;SDS011;1939;48.720;9.166;2023-07-29T06:55:26;6.17;;;2.60;;
3847;SDS011;1939;48.720;9.166;2023-07-29T06:57:51;11.53;;;3.77;;
3847;SDS011;1939;48.720;9.166;2023-07-29T07:00:17;6.83;;;4.17;;
3847;SDS011;1939;48.720;9.166;2023-07-29T07:02:45;5.47;;;3.30;;
3847;SDS011;1939;48.720;9.166;2023-07-29T07:05:10;4.37;;;2.40;;
3847;SDS011;1939;48.720;9.166;2023-07-29T07:11:03;6.57;;;5.40;;
3847;SDS011;1939;48.720;9.166;2023-07-29T07:13:28;6.23;;;2.83;;
3847;SDS011;1939;48.720;9.166;2023-07-29T07:15:56;5.03;;;2.83;;
3847;SDS011;1939;48.720;9.166;2023-07-29T07:18:22;5.20;;;3.40;;
3847;SDS011;1939;48.720;9.166;2023-07-29T07:20:51;5.33;;;3.07;;
3847;SDS011;1939;48.720;9.166;2023-07-29T07:23:17;8.60;;;3.60;;
3847;SDS011;1939;48.720;9.166;2023-07-29T07:25:42;4.87;;;3.80;;
3847;SDS011;1939;48.720;9.166;2023-07-29T07:28:08;4.30;;;3.73;;
3847;SDS011;1939;48.720;9.166;2023-07-29T07:30:33;7.50;;;3.37;;
3847;SDS011;1939;48.720;9.166;2023-07-29T07:32:58;6.20;;;3.60;;
3847;SDS011;1939;48.720;9.166;2023-07-29T07:35:24;4.40;;;2.70;;
3847;SDS011;1939;48.720;9.166;2023-07-29T07:37:49;6.70;;;3.53;;
3847;SDS011;1939;48.720;9.166;2023-07-29T07:40:14;6.53;;;3.20;;
3847;SDS011;1939;48.720;9.166;2023-07-29T07:42:39;2.90;;;2.60;;
3847;SDS011;1939;48.720;9.166;2023-07-29T07:45:05;5.07;;;2.63;;
3847;SDS011;1939;48.720;9.166;2023-07-29T07:47:30;4.33;;;3.20;;
3847;SDS011;1939;48.720;9.166;2023-07-29T07:49:56;4.17;;;2.80;;
3847;SDS011;1939;48.720;9.166;2023-07-29T07:52:21;4.60;;;2.30;;
3847;SDS011;1939;48.720;9.166;2023-07-29T07:54:51;3.60;;;2.33;;
3847;SDS011;1939;48.720;9.166;2023-07-29T07:57:16;7.37;;;2.60;;
3847;SDS011;1939;48.720;9.166;2023-07-29T07:59:41;2.93;;;2.30;;
3847;SDS011;1939;48.720;9.166;2023-07-29T08:02:06;3.50;;;2.67;;
3847;SDS011;1939;48.720;9.166;2023-07-29T08:04:45;3.90;;;2.43;;
3847;SDS011;1939;48.720;9.166;2023-07-29T08:07:11;3.40;;;1.67;;
3847;SDS011;1939;48.720;9.166;2023-07-29T08:09:36;2.90;;;1.93;;
3847;SDS011;1939;48.720;9.166;2023-07-29T08:12:02;3.90;;;1.90;;
3847;SDS011;1939;48.720;9.166;2023-07-29T08:14:27;2.30;;;1.70;;
3847;SDS011;1939;48.720;9.166;2023-07-29T08:17:11;6.70;;;2.77;;
3847;SDS011;1939;48.720;9.166;2023-07-29T08:19:36;4.07;;;2.30;;
3847;SDS011;1939;48.720;9.166;2023-07-29T08:22:02;4.33;;;1.47;;
3847;SDS011;1939;48.720;9.166;2023-07-29T08:24:28;2.70;;;2.23;;
3847;SDS011;1939;48.720;9.166;2023-07-29T08:26:53;3.40;;;2.50;;
3847;SDS011;1939;48.720;9.166;2023-07-29T08:29:18;4.93;;;2.30;;
3847;SDS011;1939;48.720;9.166;2023-07-29T08:31:43;2.93;;;2.23;;
3847;SDS011;1939;48.720;9.166;2023-07-29T08:34:09;6.90;;;2.20;;
3847;SDS011;1939;48.720;9.166;2023-07-29T08:36:34;2.63;;;1.67;;
3847;SDS011;1939;48.720;9.166;2023-07-29T08:38:59;2.60;;;2.20;;
3847;SDS011;1939;48.720;9.166;2023-07-29T08:44:40;3.77;;;3.00;;
3847;SDS011;1939;48.720;9.166;2023-07-29T08:47:05;2.10;;;1.90;;
3847;SDS011;1939;48.720;9.166;2023-07-29T08:49:31;4.63;;;3.03;;
3847;SDS011;1939;48.720;9.166;2023-07-29T08:51:57;2.83;;;2.10;;
3847;SDS011;1939;48.720;9.166;2023-07-29T08:54:22;2.50;;;1.60;;
3847;SDS011;1939;48.720;9.166;2023-07-29T08:56:48;10.03;;;2.27;;
3847;SDS011;1939;48.720;9.166;2023-07-29T08:59:13;2.60;;;1.40;;
3847;SDS011;1939;48.720;9.166;2023-07-29T09:01:39;5.20;;;2.00;;
3847;SDS011;1939;48.720;9.166;2023-07-29T09:04:04;3.20;;;2.17;;
3847;SDS011;1939;48.720;9.166;2023-07-29T09:06:33;3.30;;;1.90;;
3847;SDS011;1939;48.720;9.166;2023-07-29T09:08:58;5.57;;;2.07;;
3847;SDS011;1939;48.720;9.166;2023-07-29T09:11:24;4.57;;;2.43;;
3847;SDS011;1939;48.720;9.166;2023-07-29T09:13:50;3.33;;;2.37;;
3847;SDS011;1939;48.720;9.166;2023-07-29T09:16:18;4.13;;;2.50;;
3847;SDS011;1939;48.720;9.166;2023-07-29T09:22:09;2.07;;;1.70;;
3847;SDS011;1939;48.720;9.166;2023-07-29T09:24:45;5.93;;;1.60;;
3847;SDS011;1939;48.720;9.166;2023-07-29T09:27:12;2.70;;;1.50;;
3847;SDS011;1939;48.720;9.166;2023-07-29T09:29:48;1.30;;;1.20;;
3847;SDS011;1939;48.720;9.166;2023-07-29T09:32:20;1.37;;;1.27;;
3847;SDS011;1939;48.720;9.166;2023-07-29T09:34:45;1.23;;;1.13;;
3847;SDS011;1939;48.720;9.166;2023-07-29T09:37:15;3.30;;;1.37;;
3847;SDS011;1939;48.720;9.166;2023-07-29T09:39:43;1.47;;;1.37;;
3847;SDS011;1939;48.720;9.166;2023-07-29T09:42:11;3.10;;;1.50;;
3847;SDS011;1939;48.720;9.166;2023-07-29T09:44:36;1.73;;;1.50;;
3847;SDS011;1939;48.720;9.166;2023-07-29T09:47:01;2.70;;;1.40;;
3847;SDS011;1939;48.720;9.166;2023-07-29T09:49:26;2.87;;;1.60;;
3847;SDS011;1939;48.720;9.166;2023-07-29T09:51:55;3.13;;;1.73;;
3847;SDS011;1939;48.720;9.166;2023-07-29T09:54:20;1.10;;;1.00;;
3847;SDS011;1939;48.720;9.166;2023-07-29T09:56:45;2.80;;;1.63;;
3847;SDS011;1939;48.720;9.166;2023-07-29T09:59:12;5.10;;;1.60;;
3847;SDS011;1939;48.720;9.166;2023-07-29T10:01:37;1.50;;;1.40;;
3847;SDS011;1939;48.720;9.166;2023-07-29T10:04:03;1.53;;;1.43;;
3847;SDS011;1939;48.720;9.166;2023-07-29T10:06:28;1.70;;;1.50;;
3847;SDS011;1939;48.720;9.166;2023-07-29T10:08:54;3.23;;;1.30;;
3847;SDS011;1939;48.720;9.166;2023-07-29T10:11:20;1.67;;;1.23;;
3847;SDS011;1939;48.720;9.166;2023-07-29T10:13:46;2.17;;;1.33;;
3847;SDS011;1939;48.720;9.166;2023-07-29T10:16:11;2.40;;;1.53;;
3847;SDS011;1939;48.720;9.166;2023-07-29T10:18:36;1.93;;;1.70;;
3847;SDS011;1939;48.720;9.166;2023-07-29T10:21:02;1.53;;;1.43;;
3847;SDS011;1939;48.720;9.166;2023-07-29T10:23:32;4.80;;;2.60;;
3847;SDS011;1939;48.720;9.166;2023-07-29T10:26:00;4.03;;;1.60;;
3847;SDS011;1939;48.720;9.166;2023-07-29T10:28:26;2.23;;;2.03;;
3847;SDS011;1939;48.720;9.166;2023-07-29T10:30:54;2.70;;;1.67;;
3847;SDS011;1939;48.720;9.166;2023-07-29T10:33:19;2.53;;;1.87;;
3847;SDS011;1939;48.720;9.166;2023-07-29T10:35:45;2.53;;;2.03;;
3847;SDS011;1939;48.720;9.166;2023-07-29T10:38:11;2.27;;;1.90;;
3847;SDS011;1939;48.720;9.166;2023-07-29T10:40:47;3.63;;;3.30;;
3847;SDS011;1939;48.720;9.166;2023-07-29T10:43:15;2.00;;;1.60;;
3847;SDS011;1939;48.720;9.166;2023-07-29T10:45:46;10.47;;;1.73;;
3847;SDS011;1939;48.720;9.166;2023-07-29T10:48:12;2.63;;;1.90;;
3847;SDS011;1939;48.720;9.166;2023-07-29T10:50:37;1.83;;;1.40;;
3847;SDS011;1939;48.720;9.166;2023-07-29T10:53:02;1.77;;;1.67;;
3847;SDS011;1939;48.720;9.166;2023-07-29T10:55:35;1.90;;;1.70;;
3847;SDS011;1939;48.720;9.166;2023-07-29T10:58:05;2.87;;;1.87;;
3847;SDS011;1939;48.720;9.166;2023-07-29T11:00:30;1.73;;;1.40;;
3847;SDS011;1939;48.720;9.166;2023-07-29T11:02:58;1.87;;;1.73;;
3847;SDS011;1939;48.720;9.166;2023-07-29T11:05:25;2.40;;;1.77;;
3847;SDS011;1939;48.720;9.166;2023-07-29T11:07:51;2.40;;;1.87;;
3847;SDS011;1939;48.720;9.166;2023-07-29T11:10:16;3.73;;;1.87;;
3847;SDS011;1939;48.720;9.166;2023-07-29T11:15:36;3.37;;;1.70;;
3847;SDS011;1939;48.720;9.166;2023-07-29T11:18:01;1.50;;;1.40;;
3847;SDS011;1939;48.720;9.166;2023-07-29T11:20:27;1.63;;;1.43;;
3847;SDS011;1939;48.720;9.166;2023-07-29T11:22:53;7.07;;;2.43;;
3847;SDS011;1939;48.720;9.166;2023-07-29T11:25:19;1.90;;;1.80;;
3847;SDS011;1939;48.720;9.166;2023-07-29T11:27:44;2.10;;;1.60;;
3847;SDS011;1939;48.720;9.166;2023-07-29T11:30:10;1.90;;;1.70;;
3847;SDS011;1939;48.720;9.166;2023-07-29T11:32:36;3.43;;;2.07;;
3847;SDS011;1939;48.720;9.166;2023-07-29T11:35:05;3.37;;;2.27;;
3847;SDS011;1939;48.720;9.166;2023-07-29T11:37:32;1.87;;;1.77;;
3847;SDS011;1939;48.720;9.166;2023-07-29T11:39:58;2.90;;;1.80;;
3847;SDS011;1939;48.720;9.166;2023-07-29T11:42:24;1.70;;;1.60;;
3847;SDS011;1939;48.720;9.166;2023-07-29T11:44:51;1.97;;;1.73;;
3847;SDS011;1939;48.720;9.166;2023-07-29T11:47:16;2.80;;;1.60;;
3847;SDS011;1939;48.720;9.166;2023-07-29T11:49:41;2.20;;;2.00;;
3847;SDS011;1939;48.720;9.166;2023-07-29T11:52:09;2.40;;;1.97;;
3847;SDS011;1939;48.720;9.166;2023-07-29T11:54:38;3.00;;;1.90;;
3847;SDS011;1939;48.720;9.166;2023-07-29T11:57:07;2.17;;;1.90;;
3847;SDS011;1939;48.720;9.166;2023-07-29T11:59:36;3.73;;;2.10;;
3847;SDS011;1939;48.720;9.166;2023-07-29T12:02:05;1.83;;;1.73;;
3847;SDS011;1939;48.720;9.166;2023-07-29T12:04:30;2.60;;;1.90;;
3847;SDS011;1939;48.720;9.166;2023-07-29T12:06:56;1.80;;;1.67;;
3847;SDS011;1939;48.720;9.166;2023-07-29T12:09:22;2.77;;;2.00;;
3847;SDS011;1939;48.720;9.166;2023-07-29T12:11:47;4.73;;;2.20;;
3847;SDS011;1939;48.720;9.166;2023-07-29T12:14:13;2.40;;;2.20;;
3847;SDS011;1939;48.720;9.166;2023-07-29T12:16:44;1.57;;;1.47;;
3847;SDS011;1939;48.720;9.166;2023-07-29T12:19:13;2.07;;;1.60;;
3847;SDS011;1939;48.720;9.166;2023-07-29T12:21:39;1.50;;;1.40;;
3847;SDS011;1939;48.720;9.166;2023-07-29T12:24:05;4.87;;;1.80;;
3847;SDS011;1939;48.720;9.166;2023-07-29T12:26:30;2.97;;;1.60;;
3847;SDS011;1939;48.720;9.166;2023-07-29T12:28:55;3.53;;;2.00;;
3847;SDS011;1939;48.720;9.166;2023-07-29T12:31:33;4.23;;;2.13;;
3847;SDS011;1939;48.720;9.166;2023-07-29T12:33:58;2.40;;;1.43;;
3847;SDS011;1939;48.720;9.166;2023-07-29T12:36:27;1.67;;;1.47;;
3847;SDS011;1939;48.720;9.166;2023-07-29T12:39:05;1.93;;;1.80;;
3847;SDS011;1939;48.720;9.166;2023-07-29T12:41:30;2.10;;;1.97;;
3847;SDS011;1939;48.720;9.166;2023-07-29T12:43:55;2.20;;;1.60;;
3847;SDS011;1939;48.720;9.166;2023-07-29T12:46:20;3.53;;;1.70;;
3847;SDS011;1939;48.720;9.166;2023-07-29T12:48:45;5.43;;;2.00;;
3847;SDS011;1939;48.720;9.166;2023-07-29T12:51:12;1.70;;;1.53;;
3847;SDS011;1939;48.720;9.166;2023-07-29T12:53:37;2.70;;;1.80;;
3847;SDS011;1939;48.720;9.166;2023-07-29T12:56:02;1.90;;;1.80;;
3847;SDS011;1939;48.720;9.166;2023-07-29T12:58:28;3.30;;;1.83;;
3847;SDS011;1939;48.720;9.166;2023-07-29T13:00:53;2.50;;;2.30;;
3847;SDS011;1939;48.720;9.166;2023-07-29T13:03:19;2.40;;;1.43;;
3847;SDS011;1939;48.720;9.166;2023-07-29T13:05:46;2.03;;;1.83;;
3847;SDS011;1939;48.720;9.166;2023-07-29T13:08:11;2.00;;;1.80;;
3847;SDS011;1939;48.720;9.166;2023-07-29T13:10:36;3.10;;;1.93;;
3847;SDS011;1939;48.720;9.166;2023-07-29T13:13:06;2.37;;;1.83;;
3847;SDS011;1939;48.720;9.166;2023-07-29T13:15:32;2.00;;;1.80;;
3847;SDS011;1939;48.720;9.166;2023-07-29T13:17:57;1.90;;;1.80;;
3847;SDS011;1939;48.720;9.166;2023-07-29T13:20:24;2.20;;;1.83;;
3847;SDS011;1939;48.720;9.166;2023-07-29T13:22:49;3.73;;;1.83;;
3847;SDS011;1939;48.720;9.166;2023-07-29T13:25:14;4.03;;;1.77;;
3847;SDS011;1939;48.720;9.166;2023-07-29T13:27:39;1.70;;;1.60;;
3847;SDS011;1939;48.720;9.166;2023-07-29T13:30:05;2.90;;;1.73;;
3847;SDS011;1939;48.720;9.166;2023-07-29T13:32:30;1.90;;;1.67;;
3847;SDS011;1939;48.720;9.166;2023-07-29T13:34:55;2.73;;;2.50;;
3847;SDS011;1939;48.720;9.166;2023-07-29T13:37:21;4.00;;;2.23;;
3847;SDS011;1939;48.720;9.166;2023-07-29T13:39:46;2.30;;;1.83;;
3847;SDS011;1939;48.720;9.166;2023-07-29T13:42:11;1.47;;;1.37;;
3847;SDS011;1939;48.720;9.166;2023-07-29T13:44:36;2.53;;;2.33;;
3847;SDS011;1939;48.720;9.166;2023-07-29T13:47:02;3.03;;;1.90;;
3847;SDS011;1939;48.720;9.166;2023-07-29T13:49:27;3.93;;;1.67;;
3847;SDS011;1939;48.720;9.166;2023-07-29T13:51:52;1.70;;;1.60;;
3847;SDS011;1939;48.720;9.166;2023-07-29T13:54:17;2.57;;;1.70;;
3847;SDS011;1939;48.720;9.166;2023-07-29T13:56:43;1.60;;;1.50;;
3847;SDS011;1939;48.720;9.166;2023-07-29T13:59:08;2.17;;;1.97;;
3847;SDS011;1939;48.720;9.166;2023-07-29T14:01:33;2.13;;;1.23;;
3847;SDS011;1939;48.720;9.166;2023-07-29T14:03:58;1.97;;;1.67;;
3847;SDS011;1939;48.720;9.166;2023-07-29T14:06:23;1.97;;;1.70;;
3847;SDS011;1939;48.720;9.166;2023-07-29T14:08:49;3.43;;;2.10;;
3847;SDS011;1939;48.720;9.166;2023-07-29T14:11:14;3.10;;;2.47;;
3847;SDS011;1939;48.720;9.166;2023-07-29T14:13:39;2.03;;;1.70;;
3847;SDS011;1939;48.720;9.166;2023-07-29T14:16:04;1.70;;;1.50;;
3847;SDS011;1939;48.720;9.166;2023-07-29T14:18:30;1.43;;;1.33;;
3847;SDS011;1939;48.720;9.166;2023-07-29T14:20:55;3.20;;;1.77;;
3847;SDS011;1939;48.720;9.166;2023-07-29T14:23:20;2.00;;;1.80;;
3847;SDS011;1939;48.720;9.166;2023-07-29T14:25:47;3.03;;;2.27;;
3847;SDS011;1939;48.720;9.166;2023-07-29T14:28:19;2.00;;;1.80;;
3847;SDS011;1939;48.720;9.166;2023-07-29T14:30:44;2.47;;;1.93;;
3847;SDS011;1939;48.720;9.166;2023-07-29T14:33:10;1.90;;;1.80;;
3847;SDS011;1939;48.720;9.166;2023-07-29T14:35:37;2.30;;;2.10;;
3847;SDS011;1939;48.720;9.166;2023-07-29T14:38:02;2.53;;;2.20;;
3847;SDS011;1939;48.720;9.166;2023-07-29T14:40:27;3.30;;;1.93;;
3847;SDS011;1939;48.720;9.166;2023-07-29T14:42:53;1.97;;;1.80;;
3847;SDS011;1939;48.720;9.166;2023-07-29T14:45:18;2.80;;;2.03;;
3847;SDS011;1939;48.720;9.166;2023-07-29T14:47:43;2.43;;;2.23;;
3847;SDS011;1939;48.720;9.166;2023-07-29T14:50:08;3.30;;;2.23;;
3847;SDS011;1939;48.720;9.166;2023-07-29T14:52:34;2.27;;;2.07;;
3847;SDS011;1939;48.720;9.166;2023-07-29T14:54:59;1.90;;;1.70;;
3847;SDS011;1939;48.720;9.166;2023-07-29T14:57:24;3.17;;;2.33;;
3847;SDS011;1939;48.720;9.166;2023-07-29T14:59:49;3.50;;;2.37;;
3847;SDS011;1939;48.720;9.166;2023-07-29T15:02:15;2.10;;;1.90;;
3847;SDS011;1939;48.720;9.166;2023-07-29T15:07:33;2.93;;;2.10;;
3847;SDS011;1939;48.720;9.166;2023-07-29T15:10:05;3.00;;;2.10;;
3847;SDS011;1939;48.720;9.166;2023-07-29T15:12:40;2.97;;;2.20;;
3847;SDS011;1939;48.720;9.166;2023-07-29T15:15:05;3.27;;;2.03;;
3847;SDS011;1939;48.720;9.166;2023-07-29T15:17:31;1.50;;;1.40;;
3847;SDS011;1939;48.720;9.166;2023-07-29T15:19:58;2.60;;;2.20;;
3847;SDS011;1939;48.720;9.166;2023-07-29T15:22:31;2.77;;;2.43;;
3847;SDS011;1939;48.720;9.166;2023-07-29T15:28:04;3.80;;;2.40;;
3847;SDS011;1939;48.720;9.166;2023-07-29T15:30:36;6.80;;;2.23;;
3847;SDS011;1939;48.720;9.166;2023-07-29T15:33:02;5.10;;;2.40;;
3847;SDS011;1939;48.720;9.166;2023-07-29T15:38:18;2.50;;;2.20;;
3847;SDS011;1939;48.720;9.166;2023-07-29T15:40:43;2.47;;;1.67;;
3847;SDS011;1939;48.720;9.166;2023-07-29T15:43:08;2.40;;;1.90;;
3847;SDS011;1939;48.720;9.166;2023-07-29T15:45:34;5.77;;;2.20;;